Time;durP1;ratioP1;P1;durP2;ratioP2;P2;SDS_P1;SDS_P2;PMS_P1;PMS_P2;Temp;Humidity;BMP_temperature;BMP_pressure;BME280_temperature;BME280_humidity;BME280_pressure;Samples;Min_cycle;Max_cycle;Signal;HPM_P1;HPM_P2
2023/02/17 00:00:12;;;;;;;2.50;2.30;;;11.80;99.90;;;;;;5094869;28;20213;-80
2023/02/17 00:02:39;;;;;;;2.30;2.20;;;11.80;99.90;;;;;;5094296;28;20215;-82
2023/02/17 00:05:06;;;;;;;2.20;2.10;;;11.70;99.90;;;;;;5094799;28;20199;-80
2023/02/17 00:07:35;;;;;;;3.93;2.70;;;11.70;99.90;;;;;;5094547;28;20200;-83
2023/02/17 00:10:02;;;;;;;2.73;2.53;;;11.60;99.90;;;;;;5094272;28;20206;-80
2023/02/17 00:12:28;;;;;;;3.63;2.30;;;11.70;99.90;;;;;;5094097;28;20705;-79
2023/02/17 00:14:55;;;;;;;2.50;2.30;;;11.60;99.90;;;;;;5094603;28;20211;-79
2023/02/17 00:17:22;;;;;;;2.57;2.37;;;11.70;99.90;;;;;;5091641;28;20230;-81
2023/02/17 00:19:49;;;;;;;3.60;3.23;;;11.70;99.90;;;;;;5094317;28;20284;-81
2023/02/17 00:22:15;;;;;;;2.70;2.50;;;11.60;99.90;;;;;;5093834;28;20207;-79
2023/02/17 00:24:44;;;;;;;4.17;2.90;;;11.60;99.90;;;;;;5094567;28;20209;-81
2023/02/17 00:27:11;;;;;;;3.07;2.80;;;11.60;99.90;;;;;;5094015;28;20214;-81
2023/02/17 00:29:37;;;;;;;3.13;2.80;;;11.60;99.90;;;;;;5093880;28;20204;-81
2023/02/17 00:32:05;;;;;;;3.42;3.13;;;11.60;99.90;;;;;;5093593;28;20426;-81
2023/02/17 00:34:31;;;;;;;2.70;2.50;;;11.60;99.90;;;;;;5094293;28;20230;-81
2023/02/17 00:36:58;;;;;;;2.80;2.60;;;11.60;99.90;;;;;;5093612;28;20202;-81
2023/02/17 00:39:25;;;;;;;3.80;2.83;;;11.60;99.90;;;;;;5093810;28;20217;-81
2023/02/17 00:41:53;;;;;;;2.63;2.40;;;11.50;99.90;;;;;;5093750;28;20206;-83
2023/02/17 00:44:22;;;;;;;2.30;2.20;;;11.50;99.90;;;;;;5094131;28;20206;-80
2023/02/17 00:46:48;;;;;;;2.93;2.73;;;11.40;99.90;;;;;;5093972;28;20196;-81
2023/02/17 00:49:17;;;;;;;3.53;2.60;;;11.40;99.90;;;;;;5093686;28;20228;-81
2023/02/17 00:51:44;;;;;;;3.03;2.20;;;11.50;99.90;;;;;;5093540;28;20206;-80
2023/02/17 00:54:11;;;;;;;2.63;2.47;;;11.30;99.90;;;;;;5093661;28;20211;-81
2023/02/17 00:56:38;;;;;;;2.70;2.50;;;11.40;99.90;;;;;;5080573;28;20191;-81
2023/02/17 00:59:07;;;;;;;3.23;2.60;;;11.30;99.90;;;;;;5093587;28;20223;-83
2023/02/17 01:01:33;;;;;;;3.20;2.70;;;11.20;99.90;;;;;;5093782;28;20202;-80
2023/02/17 01:04:01;;;;;;;2.93;2.60;;;11.30;99.90;;;;;;5093550;28;20209;-79
2023/02/17 01:06:30;;;;;;;2.73;2.50;;;11.20;99.90;;;;;;5093510;28;20215;-79
2023/02/17 01:08:57;;;;;;;2.87;2.67;;;11.30;99.90;;;;;;5093185;28;20202;-83
2023/02/17 01:11:26;;;;;;;3.23;2.60;;;11.30;99.90;;;;;;5093318;28;20238;-80
2023/02/17 01:13:53;;;;;;;6.63;3.10;;;11.30;99.90;;;;;;5093294;28;20206;-80
2023/02/17 01:16:25;;;;;;;3.73;3.10;;;11.30;99.90;;;;;;5093309;28;20206;-82
2023/02/17 01:18:52;;;;;;;4.27;3.33;;;11.20;99.90;;;;;;5093093;28;20234;-80
2023/02/17 01:21:20;;;;;;;5.83;3.40;;;11.30;99.90;;;;;;5082979;28;20214;-80
2023/02/17 01:23:48;;;;;;;3.77;3.47;;;11.30;99.90;;;;;;5089799;28;20207;-80
2023/02/17 01:26:17;;;;;;;4.13;3.73;;;11.40;99.90;;;;;;5093635;28;20206;-81
2023/02/17 01:28:44;;;;;;;5.63;3.87;;;11.40;99.90;;;;;;5093464;28;20199;-81
2023/02/17 01:31:11;;;;;;;4.87;3.87;;;11.50;99.90;;;;;;5092998;28;20685;-81
2023/02/17 01:33:40;;;;;;;5.33;3.90;;;11.40;99.90;;;;;;5092839;28;20211;-78
2023/02/17 01:36:09;;;;;;;5.67;3.67;;;11.40;99.90;;;;;;5092455;28;20239;-81
2023/02/17 01:38:37;;;;;;;3.75;3.42;;;11.40;99.90;;;;;;5092477;28;20446;-79
2023/02/17 01:41:04;;;;;;;3.07;2.87;;;11.30;99.90;;;;;;5080877;28;20545;-81
2023/02/17 01:43:31;;;;;;;3.00;2.80;;;11.30;99.90;;;;;;5091737;28;20217;-83
2023/02/17 01:45:59;;;;;;;2.80;2.50;;;11.20;99.90;;;;;;5092119;28;20221;-81
2023/02/17 01:48:29;;;;;;;2.97;2.67;;;11.20;99.90;;;;;;5092738;28;20198;-82
2023/02/17 01:51:02;;;;;;;3.17;2.20;;;11.20;99.90;;;;;;5092702;28;20202;-83
2023/02/17 01:53:33;;;;;;;2.37;2.20;;;11.20;99.90;;;;;;5092632;28;20199;-82
2023/02/17 01:56:00;;;;;;;3.30;2.40;;;11.20;99.90;;;;;;5091611;28;20285;-82
2023/02/17 01:58:27;;;;;;;2.10;2.00;;;11.20;99.90;;;;;;5093779;28;20248;-81
2023/02/17 02:00:59;;;;;;;1.57;1.47;;;11.10;99.90;;;;;;5110005;28;20205;-83
2023/02/17 02:03:28;;;;;;;2.87;2.00;;;11.10;99.90;;;;;;5110762;28;20206;-81
2023/02/17 02:05:57;;;;;;;2.20;2.00;;;11.00;99.90;;;;;;5109635;28;20210;-82
2023/02/17 02:08:23;;;;;;;1.83;1.73;;;10.90;99.90;;;;;;5113295;28;20202;-81
2023/02/17 02:10:51;;;;;;;2.20;2.00;;;11.00;99.90;;;;;;5113892;28;20189;-79
2023/02/17 02:13:18;;;;;;;2.03;1.73;;;11.00;99.90;;;;;;5117216;28;20194;-80
2023/02/17 02:15:52;;;;;;;2.20;2.00;;;11.00;99.90;;;;;;5101999;28;20210;-79
2023/02/17 02:18:40;;;;;;;2.23;2.07;;;10.90;99.90;;;;;;5081621;28;20242;-78
2023/02/17 02:21:39;;;;;;;2.37;1.87;;;10.90;99.90;;;;;;5102520;28;20198;-80
2023/02/17 02:24:16;;;;;;;2.43;2.20;;;10.90;99.90;;;;;;5101708;28;20206;-79
2023/02/17 02:27:14;;;;;;;3.60;2.27;;;10.90;99.90;;;;;;5092739;28;20204;-79
2023/02/17 02:30:11;;;;;;;5.53;2.57;;;10.90;99.90;;;;;;5093012;28;20213;-79
2023/02/17 02:33:08;;;;;;;2.40;2.20;;;10.90;99.90;;;;;;5060425;28;20790;-80
2023/02/17 02:35:44;;;;;;;5.33;2.67;;;10.90;99.90;;;;;;5093014;28;20201;-78
2023/02/17 02:38:18;;;;;;;4.53;2.50;;;10.90;99.90;;;;;;5093030;28;20222;-79
2023/02/17 02:40:50;;;;;;;3.73;2.50;;;10.90;99.90;;;;;;5092953;28;20209;-79
2023/02/17 02:43:17;;;;;;;5.27;2.90;;;10.90;99.90;;;;;;5092212;28;20216;-79
2023/02/17 02:45:44;;;;;;;3.77;2.57;;;11.00;99.90;;;;;;5092938;28;20203;-79
2023/02/17 02:48:12;;;;;;;5.00;3.30;;;11.10;99.90;;;;;;5078087;28;20434;-80
2023/02/17 02:51:10;;;;;;;5.30;3.53;;;11.10;99.90;;;;;;5092660;28;20216;-78
2023/02/17 02:54:09;;;;;;;6.37;3.53;;;11.00;99.90;;;;;;5078217;28;20665;-78
2023/02/17 02:56:48;;;;;;;4.37;3.20;;;10.90;99.90;;;;;;5076409;28;20205;-80
2023/02/17 02:59:31;;;;;;;5.47;3.83;;;10.80;99.90;;;;;;5095695;28;20677;-81
2023/02/17 03:02:08;;;;;;;5.50;3.40;;;11.00;99.90;;;;;;5095647;28;20221;-80
2023/02/17 03:04:41;;;;;;;6.17;3.93;;;11.00;99.90;;;;;;5096056;28;20201;-79
2023/02/17 03:07:19;;;;;;;8.67;3.77;;;11.00;99.90;;;;;;5094571;28;20206;-78
2023/02/17 03:09:47;;;;;;;9.03;3.97;;;10.90;99.90;;;;;;5095707;28;20590;-81
2023/02/17 03:12:16;;;;;;;5.23;4.07;;;11.00;99.90;;;;;;5094980;28;20433;-82
2023/02/17 03:14:43;;;;;;;5.63;3.83;;;11.00;99.90;;;;;;5096020;28;20244;-78
2023/02/17 03:17:10;;;;;;;4.53;4.10;;;11.00;99.90;;;;;;5095258;28;20197;-78
2023/02/17 03:19:39;;;;;;;5.33;3.80;;;10.90;99.90;;;;;;5095892;28;20238;-80
2023/02/17 03:22:11;;;;;;;6.40;4.13;;;10.90;99.90;;;;;;5093108;28;20573;-79
2023/02/17 03:24:37;;;;;;;3.80;3.43;;;10.90;99.90;;;;;;5085637;28;20226;-78
2023/02/17 03:27:04;;;;;;;4.63;3.57;;;10.90;99.90;;;;;;5095099;28;20212;-79
2023/02/17 03:29:31;;;;;;;4.73;3.87;;;10.90;99.90;;;;;;5095832;28;20209;-79
2023/02/17 03:31:58;;;;;;;5.73;3.70;;;10.90;99.90;;;;;;5095361;28;20657;-80
2023/02/17 03:34:24;;;;;;;4.23;3.80;;;10.80;99.90;;;;;;5095360;28;20566;-81
2023/02/17 03:36:53;;;;;;;6.90;4.33;;;10.90;99.90;;;;;;5081479;28;20197;-81
2023/02/17 03:39:19;;;;;;;5.80;4.07;;;10.90;99.90;;;;;;5095215;28;20240;-79
2023/02/17 03:41:49;;;;;;;7.23;4.23;;;10.90;99.90;;;;;;5095104;28;20667;-80
2023/02/17 03:44:16;;;;;;;6.67;4.10;;;11.00;99.90;;;;;;5094989;28;20214;-79
2023/02/17 03:46:43;;;;;;;5.97;3.83;;;11.00;99.90;;;;;;5094700;28;20205;-81
2023/02/17 03:49:09;;;;;;;5.60;3.90;;;11.10;99.90;;;;;;5094907;28;20210;-80
2023/02/17 03:51:36;;;;;;;5.70;4.10;;;11.00;99.90;;;;;;5095255;28;20202;-79
2023/02/17 03:54:05;;;;;;;6.73;4.33;;;11.00;99.90;;;;;;5095133;28;20293;-80
2023/02/17 03:56:32;;;;;;;7.17;4.63;;;11.00;99.90;;;;;;5095057;28;20197;-80
2023/02/17 03:58:59;;;;;;;4.73;3.97;;;11.00;99.90;;;;;;5095142;28;20223;-79
2023/02/17 04:01:25;;;;;;;6.70;4.23;;;11.00;99.90;;;;;;5094614;28;20201;-80
2023/02/17 04:03:52;;;;;;;10.73;5.00;;;11.00;99.90;;;;;;5094321;28;20630;-79
2023/02/17 04:06:19;;;;;;;5.20;3.87;;;11.00;99.90;;;;;;5094743;28;20554;-78
2023/02/17 04:08:46;;;;;;;7.97;4.60;;;11.00;99.90;;;;;;5093671;28;20203;-80
2023/02/17 04:11:14;;;;;;;7.00;4.87;;;10.90;99.90;;;;;;5081996;28;20211;-80
2023/02/17 04:13:41;;;;;;;9.43;4.70;;;10.90;99.90;;;;;;5094665;28;20202;-79
2023/02/17 04:16:09;;;;;;;9.83;4.33;;;10.90;99.90;;;;;;5088008;28;20261;-79
2023/02/17 04:18:36;;;;;;;8.03;4.50;;;10.90;99.90;;;;;;5088128;28;20222;-79
2023/02/17 04:21:03;;;;;;;6.27;4.63;;;11.10;99.90;;;;;;5094419;28;20198;-80
2023/02/17 04:23:30;;;;;;;5.20;4.10;;;11.00;99.90;;;;;;5094173;28;20217;-79
2023/02/17 04:25:57;;;;;;;7.13;5.10;;;11.00;99.90;;;;;;5081825;28;20431;-82
2023/02/17 04:28:25;;;;;;;6.93;4.83;;;11.00;99.90;;;;;;5093649;28;20616;-80
2023/02/17 04:30:52;;;;;;;6.27;4.70;;;10.90;99.90;;;;;;5081951;28;20198;-83
2023/02/17 04:33:19;;;;;;;5.27;4.50;;;11.00;99.90;;;;;;5094578;28;20223;-79
2023/02/17 04:35:47;;;;;;;7.73;4.63;;;11.00;99.90;;;;;;5094463;28;20213;-80
2023/02/17 04:38:13;;;;;;;6.27;4.67;;;11.00;99.90;;;;;;5094248;28;20198;-79
2023/02/17 04:40:41;;;;;;;6.53;5.03;;;10.90;99.90;;;;;;5094052;28;20613;-79
2023/02/17 04:43:07;;;;;;;7.53;4.80;;;10.90;99.90;;;;;;5078054;28;20578;-81
2023/02/17 04:45:36;;;;;;;4.97;4.47;;;10.90;99.90;;;;;;5082862;28;20214;-79
2023/02/17 04:48:04;;;;;;;5.83;4.30;;;10.90;99.90;;;;;;5094255;28;20198;-79
2023/02/17 04:50:31;;;;;;;6.22;4.88;;;10.90;99.90;;;;;;5094007;28;20436;-80
2023/02/17 04:52:57;;;;;;;7.17;4.90;;;10.80;99.90;;;;;;5080776;28;20207;-79
2023/02/17 04:55:24;;;;;;;6.90;4.80;;;10.90;99.90;;;;;;5093797;28;20562;-80
2023/02/17 04:57:51;;;;;;;5.57;5.00;;;10.90;99.90;;;;;;5093588;28;20199;-79
2023/02/17 05:00:18;;;;;;;6.30;4.67;;;10.90;99.90;;;;;;5094889;28;20241;-87
2023/02/17 05:02:46;;;;;;;5.30;4.90;;;10.80;99.90;;;;;;5095007;28;20202;-83
2023/02/17 05:05:14;;;;;;;5.27;4.57;;;10.80;99.90;;;;;;5094621;28;20202;-84
2023/02/17 05:07:41;;;;;;;6.03;4.53;;;10.80;99.90;;;;;;5094329;28;20205;-84
2023/02/17 05:10:08;;;;;;;7.83;4.53;;;10.80;99.90;;;;;;5093943;28;20204;-83
2023/02/17 05:12:35;;;;;;;7.57;4.93;;;10.90;99.90;;;;;;5075224;28;20219;-84
2023/02/17 05:15:02;;;;;;;6.50;5.13;;;10.90;99.90;;;;;;5085369;28;20207;-82
2023/02/17 05:17:29;;;;;;;9.10;5.30;;;11.00;99.90;;;;;;5093561;28;20668;-79
2023/02/17 05:19:57;;;;;;;6.90;4.67;;;10.70;99.90;;;;;;5081812;28;20705;-78
2023/02/17 05:22:25;;;;;;;6.27;5.10;;;10.70;99.90;;;;;;5077502;28;20566;-79
2023/02/17 05:24:52;;;;;;;5.47;5.03;;;10.60;99.90;;;;;;5093805;28;20216;-79
2023/02/17 05:27:19;;;;;;;7.63;5.10;;;10.50;99.90;;;;;;5093226;28;20208;-81
2023/02/17 05:29:46;;;;;;;5.70;5.20;;;10.50;99.90;;;;;;5092470;28;20248;-79
2023/02/17 05:32:12;;;;;;;6.20;5.30;;;10.50;99.90;;;;;;5087534;28;20195;-80
2023/02/17 05:34:39;;;;;;;7.47;5.40;;;10.50;99.90;;;;;;5085951;28;20201;-82
2023/02/17 05:37:07;;;;;;;6.33;5.60;;;10.50;99.90;;;;;;5086802;28;20198;-80
2023/02/17 05:39:34;;;;;;;6.43;4.77;;;10.60;99.90;;;;;;5086876;28;20230;-79
2023/02/17 05:42:01;;;;;;;6.47;5.33;;;10.60;99.90;;;;;;5093191;28;20205;-80
2023/02/17 05:44:31;;;;;;;5.57;5.07;;;10.50;99.90;;;;;;5093179;28;20209;-79
2023/02/17 05:46:58;;;;;;;5.70;4.80;;;10.60;99.90;;;;;;5091908;28;20209;-79
2023/02/17 05:49:25;;;;;;;5.10;4.60;;;10.60;99.90;;;;;;5093188;28;20202;-81
2023/02/17 05:51:51;;;;;;;6.90;5.50;;;10.70;99.90;;;;;;5092947;28;20212;-79
2023/02/17 05:54:19;;;;;;;6.20;5.03;;;10.60;99.90;;;;;;5092565;28;20198;-80
2023/02/17 05:56:46;;;;;;;6.83;5.23;;;10.60;99.90;;;;;;5092819;28;20201;-81
2023/02/17 05:59:13;;;;;;;6.73;5.30;;;10.60;99.90;;;;;;5077771;28;20214;-82
2023/02/17 06:01:40;;;;;;;5.40;4.87;;;10.60;99.90;;;;;;5082762;28;20652;-81
2023/02/17 06:04:07;;;;;;;5.83;5.10;;;10.70;99.90;;;;;;5092649;28;20568;-80
2023/02/17 06:06:34;;;;;;;6.10;5.17;;;10.70;99.90;;;;;;5082440;28;20648;-86
2023/02/17 06:09:00;;;;;;;6.13;5.03;;;10.70;99.90;;;;;;5088974;28;20671;-81
2023/02/17 06:11:29;;;;;;;5.33;4.83;;;10.70;99.90;;;;;;5083082;28;20305;-80
2023/02/17 06:13:56;;;;;;;5.13;4.70;;;10.80;99.90;;;;;;5085987;28;20203;-83
2023/02/17 06:16:22;;;;;;;4.60;4.20;;;10.70;99.90;;;;;;5081387;28;20197;-81
2023/02/17 06:18:49;;;;;;;4.87;4.37;;;10.70;99.90;;;;;;5093044;28;20213;-82
2023/02/17 06:21:16;;;;;;;5.37;4.67;;;10.80;99.90;;;;;;5092449;28;20656;-82
2023/02/17 06:23:43;;;;;;;5.43;4.93;;;10.80;99.90;;;;;;5093020;28;20214;-81
2023/02/17 06:26:10;;;;;;;6.13;5.07;;;10.80;99.90;;;;;;5089341;28;20564;-81
2023/02/17 06:28:38;;;;;;;5.40;4.90;;;10.90;99.90;;;;;;5084590;28;20202;-82
2023/02/17 06:31:05;;;;;;;5.67;4.90;;;10.90;99.90;;;;;;5092484;28;20203;-81
2023/02/17 06:33:32;;;;;;;5.17;4.63;;;11.10;99.90;;;;;;5095193;28;20212;-81
2023/02/17 06:35:58;;;;;;;4.50;4.20;;;11.00;99.90;;;;;;5096442;28;20657;-82
2023/02/17 06:38:25;;;;;;;5.60;5.13;;;11.00;99.90;;;;;;5095091;28;20566;-81
2023/02/17 06:40:52;;;;;;;5.83;4.43;;;11.10;99.90;;;;;;5095756;28;20245;-79
2023/02/17 06:43:19;;;;;;;5.60;4.83;;;11.20;99.90;;;;;;5082993;28;20214;-81
2023/02/17 06:45:47;;;;;;;4.90;4.50;;;11.10;99.90;;;;;;5096258;28;20218;-80
2023/02/17 06:48:14;;;;;;;4.90;4.47;;;11.10;99.90;;;;;;5096232;28;20200;-82
2023/02/17 06:50:41;;;;;;;5.53;5.00;;;11.00;99.90;;;;;;5094646;28;20195;-82
2023/02/17 06:53:08;;;;;;;5.20;4.70;;;11.00;99.90;;;;;;5092083;28;20203;-83
2023/02/17 06:55:36;;;;;;;4.77;4.47;;;11.00;99.90;;;;;;5093148;28;20202;-84
2023/02/17 06:58:03;;;;;;;6.57;4.57;;;11.00;99.90;;;;;;5093396;28;20252;-84
2023/02/17 07:00:29;;;;;;;6.00;5.40;;;11.00;99.90;;;;;;5095390;28;20447;-85
2023/02/17 07:02:57;;;;;;;5.23;4.47;;;11.10;99.90;;;;;;5093355;28;20210;-82
2023/02/17 07:05:24;;;;;;;5.13;4.30;;;11.10;99.90;;;;;;5095982;28;20206;-85
2023/02/17 07:07:52;;;;;;;5.33;4.47;;;11.10;99.90;;;;;;5096035;28;20699;-80
2023/02/17 07:10:20;;;;;;;6.40;5.17;;;11.10;99.90;;;;;;5082479;28;20190;-81
2023/02/17 07:12:47;;;;;;;4.83;4.43;;;11.20;99.90;;;;;;5096200;28;20228;-80
2023/02/17 07:15:15;;;;;;;4.97;4.57;;;11.20;99.90;;;;;;5095816;28;20198;-80
2023/02/17 07:17:41;;;;;;;4.70;4.23;;;11.20;99.90;;;;;;5095587;28;20205;-79
2023/02/17 07:20:11;;;;;;;4.27;3.97;;;11.20;99.90;;;;;;5095743;28;20239;-79
2023/02/17 07:22:38;;;;;;;6.90;4.67;;;11.20;99.90;;;;;;5095769;28;20214;-81
2023/02/17 07:25:06;;;;;;;4.73;4.33;;;11.20;99.90;;;;;;5095033;28;20198;-79
2023/02/17 07:27:35;;;;;;;5.10;4.73;;;11.20;99.90;;;;;;5094962;28;20422;-78
2023/02/17 07:30:02;;;;;;;4.83;4.43;;;11.20;99.90;;;;;;5095757;28;20256;-79
2023/02/17 07:32:29;;;;;;;4.37;4.17;;;11.20;99.90;;;;;;5095147;28;20203;-79
2023/02/17 07:34:56;;;;;;;4.23;4.00;;;11.30;99.90;;;;;;5095225;28;20570;-79
2023/02/17 07:37:24;;;;;;;4.07;3.77;;;11.30;99.90;;;;;;5094918;28;20210;-77
2023/02/17 07:39:51;;;;;;;4.27;3.87;;;11.40;99.90;;;;;;5082028;28;20221;-80
2023/02/17 07:42:18;;;;;;;4.50;4.10;;;11.40;99.90;;;;;;5081013;28;20566;-80
2023/02/17 07:44:45;;;;;;;4.57;4.13;;;11.40;99.90;;;;;;5093227;28;20207;-78
2023/02/17 07:47:12;;;;;;;4.20;3.83;;;11.40;99.90;;;;;;5094718;28;20202;-81
2023/02/17 07:49:39;;;;;;;4.03;3.60;;;11.30;99.90;;;;;;5094374;28;20221;-76
2023/02/17 07:52:06;;;;;;;4.40;3.20;;;11.40;99.90;;;;;;5080839;28;20261;-80
2023/02/17 07:54:34;;;;;;;3.00;2.83;;;11.50;99.90;;;;;;5094516;28;20202;-80
2023/02/17 07:57:02;;;;;;;3.63;2.87;;;11.50;99.90;;;;;;5094827;28;20215;-86
2023/02/17 07:59:29;;;;;;;4.50;2.60;;;11.50;99.90;;;;;;5094414;28;20676;-79
2023/02/17 08:01:56;;;;;;;2.67;2.57;;;11.50;99.90;;;;;;5092702;28;20212;-79
2023/02/17 08:04:22;;;;;;;3.23;2.67;;;11.50;99.90;;;;;;5088872;28;20210;-80
2023/02/17 08:06:49;;;;;;;2.30;2.20;;;11.60;99.90;;;;;;5085097;28;20213;-82
2023/02/17 08:14:46;;;;;;;4.30;2.07;;;11.50;99.90;;;;;;5090299;28;20213;-82
2023/02/17 08:17:13;;;;;;;2.43;1.73;;;11.50;99.90;;;;;;5092335;28;20199;-80
2023/02/17 08:19:39;;;;;;;3.30;1.80;;;11.60;99.90;;;;;;5093845;28;20194;-79
2023/02/17 08:22:06;;;;;;;2.70;2.50;;;11.60;99.90;;;;;;5092842;28;20433;-80
2023/02/17 08:24:33;;;;;;;2.00;1.90;;;11.80;99.90;;;;;;5093754;28;20678;-78
2023/02/17 08:27:02;;;;;;;1.50;1.47;;;11.90;99.90;;;;;;5093657;28;20227;-76
2023/02/17 08:29:28;;;;;;;2.00;1.60;;;11.80;99.90;;;;;;5094364;28;20641;-81
2023/02/17 08:31:55;;;;;;;2.40;1.80;;;11.80;99.90;;;;;;5094917;28;20199;-79
2023/02/17 08:34:22;;;;;;;2.23;1.77;;;11.80;99.90;;;;;;5094378;28;20203;-81
2023/02/17 08:36:49;;;;;;;2.80;1.70;;;11.80;99.90;;;;;;5094007;28;20204;-79
2023/02/17 08:39:17;;;;;;;1.60;1.50;;;11.80;99.90;;;;;;5091593;28;20211;-78
2023/02/17 08:41:46;;;;;;;1.60;1.50;;;11.80;99.90;;;;;;5083791;28;20225;-79
2023/02/17 08:44:16;;;;;;;1.47;1.40;;;11.70;99.90;;;;;;5094250;28;20306;-78
2023/02/17 08:46:43;;;;;;;1.40;1.30;;;11.90;99.90;;;;;;5094491;28;20210;-80
2023/02/17 08:49:11;;;;;;;1.10;1.10;;;11.90;99.90;;;;;;5093958;28;20211;-79
2023/02/17 08:51:38;;;;;;;1.10;1.10;;;12.00;99.90;;;;;;5093919;28;20636;-78
2023/02/17 08:54:06;;;;;;;1.00;1.00;;;12.00;99.90;;;;;;5094247;28;20204;-78
2023/02/17 08:56:34;;;;;;;2.97;0.87;;;12.00;99.90;;;;;;5093802;28;20232;-79
2023/02/17 08:59:01;;;;;;;0.80;0.80;;;12.00;99.90;;;;;;5093892;28;20204;-77
2023/02/17 09:01:29;;;;;;;1.10;0.77;;;12.00;99.90;;;;;;5093928;28;20582;-75
2023/02/17 09:03:58;;;;;;;1.00;1.00;;;12.10;99.90;;;;;;5094209;28;20211;-77
2023/02/17 09:06:33;;;;;;;0.60;0.60;;;12.10;99.90;;;;;;5093366;28;20216;-76
2023/02/17 09:09:00;;;;;;;0.60;0.60;;;12.30;99.90;;;;;;5093539;28;20538;-79
2023/02/17 09:11:27;;;;;;;3.57;0.70;;;12.30;99.90;;;;;;5093227;28;20220;-77
2023/02/17 09:13:54;;;;;;;3.13;0.87;;;12.30;99.90;;;;;;5093546;28;20214;-77
2023/02/17 09:16:23;;;;;;;1.30;0.75;;;12.40;99.90;;;;;;5093052;28;20886;-77
2023/02/17 09:18:51;;;;;;;1.13;0.70;;;12.30;99.90;;;;;;5093614;28;20215;-77
2023/02/17 09:21:18;;;;;;;1.80;0.80;;;12.30;99.90;;;;;;5093369;28;20236;-78
2023/02/17 09:23:45;;;;;;;2.83;0.80;;;12.40;99.90;;;;;;5093231;28;20212;-79
2023/02/17 09:26:16;;;;;;;0.70;0.70;;;12.40;99.90;;;;;;5093448;28;20206;-75
2023/02/17 09:28:44;;;;;;;2.47;0.80;;;12.50;99.90;;;;;;5093048;28;20215;-76
2023/02/17 09:31:11;;;;;;;0.67;0.67;;;12.50;99.90;;;;;;5093235;28;20212;-76
2023/02/17 09:33:39;;;;;;;0.80;0.80;;;12.60;99.90;;;;;;5093122;28;20204;-79
2023/02/17 09:36:09;;;;;;;0.97;0.80;;;12.70;99.90;;;;;;5092965;28;20226;-78
2023/02/17 09:38:38;;;;;;;1.03;0.67;;;12.70;99.90;;;;;;5092586;28;20572;-76
2023/02/17 09:41:15;;;;;;;0.80;0.80;;;12.80;99.90;;;;;;5092892;28;20295;-79
2023/02/17 09:43:42;;;;;;;0.70;0.70;;;12.80;99.90;;;;;;5093177;28;20212;-77
2023/02/17 09:46:15;;;;;;;3.53;0.80;;;12.80;99.90;;;;;;5092932;28;20216;-78
2023/02/17 09:48:44;;;;;;;0.97;0.70;;;12.80;99.90;;;;;;5092742;28;20196;-77
2023/02/17 09:51:19;;;;;;;0.80;0.80;;;12.90;99.90;;;;;;5092637;28;20208;-77
2023/02/17 09:53:51;;;;;;;0.90;0.73;;;12.90;99.90;;;;;;5092831;28;20200;-75
2023/02/17 09:56:24;;;;;;;0.80;0.80;;;12.90;99.90;;;;;;5092965;28;20248;-77
2023/02/17 09:58:55;;;;;;;0.80;0.73;;;12.90;99.90;;;;;;5092948;28;20199;-76
2023/02/17 10:01:26;;;;;;;0.70;0.70;;;12.80;99.90;;;;;;5092895;28;20310;-78
2023/02/17 10:03:57;;;;;;;0.70;0.70;;;12.80;99.90;;;;;;5092682;28;20212;-78
2023/02/17 10:06:29;;;;;;;1.63;0.67;;;12.80;99.90;;;;;;5092617;28;20629;-76
2023/02/17 10:09:01;;;;;;;2.50;0.90;;;12.90;99.90;;;;;;5096215;28;20483;-79
2023/02/17 10:11:32;;;;;;;2.00;0.70;;;13.00;99.90;;;;;;5096472;28;20232;-78
2023/02/17 10:14:04;;;;;;;1.60;1.00;;;13.10;99.90;;;;;;5096958;28;20277;-77
2023/02/17 10:16:36;;;;;;;3.00;0.60;;;13.20;99.90;;;;;;5096885;28;20239;-77
2023/02/17 10:19:10;;;;;;;4.33;0.80;;;13.20;99.90;;;;;;5096545;28;20209;-78
2023/02/17 10:21:42;;;;;;;3.90;1.00;;;13.30;99.90;;;;;;5096515;28;20228;-78
2023/02/17 10:24:09;;;;;;;2.00;0.57;;;13.30;99.90;;;;;;5096609;28;20312;-78
2023/02/17 10:27:02;;;;;;;6.37;1.10;;;13.30;99.90;;;;;;5096594;28;20204;-79
2023/02/17 10:29:38;;;;;;;0.63;0.50;;;13.30;99.90;;;;;;5094832;28;20204;-79
2023/02/17 10:32:20;;;;;;;1.07;0.80;;;13.20;99.90;;;;;;5095804;28;20887;-80
2023/02/17 10:35:16;;;;;;;1.83;0.83;;;13.00;99.90;;;;;;5096532;28;20200;-79
2023/02/17 10:37:48;;;;;;;1.17;0.70;;;13.20;99.90;;;;;;5085181;28;20676;-80
2023/02/17 10:40:19;;;;;;;1.53;0.60;;;13.40;99.90;;;;;;5095976;28;20631;-78
2023/02/17 10:42:49;;;;;;;1.60;1.13;;;13.40;99.90;;;;;;5095439;28;20566;-80
2023/02/17 10:45:26;;;;;;;0.87;0.60;;;13.30;99.90;;;;;;5095741;28;20209;-79
2023/02/17 10:47:58;;;;;;;0.70;0.67;;;13.20;99.90;;;;;;5095819;28;20208;-80
2023/02/17 10:50:25;;;;;;;0.50;0.50;;;13.20;99.90;;;;;;5095973;28;20239;-78
2023/02/17 10:52:55;;;;;;;3.00;0.60;;;13.20;99.90;;;;;;5095998;28;20215;-77
2023/02/17 10:55:31;;;;;;;1.63;0.80;;;13.30;99.90;;;;;;5083065;28;20208;-79
2023/02/17 10:58:06;;;;;;;1.43;0.70;;;13.20;99.90;;;;;;5095912;28;20197;-76
2023/02/17 11:00:33;;;;;;;4.00;1.20;;;13.20;99.90;;;;;;5095271;28;20604;-78
2023/02/17 11:03:00;;;;;;;0.90;0.80;;;13.20;99.90;;;;;;5095416;28;20565;-77
2023/02/17 11:05:30;;;;;;;1.97;0.73;;;13.20;99.90;;;;;;5095668;28;20212;-80
2023/02/17 11:08:01;;;;;;;0.80;0.80;;;13.30;99.90;;;;;;5095741;28;20204;-77
2023/02/17 11:10:32;;;;;;;1.30;0.83;;;13.30;99.90;;;;;;5095666;28;20205;-78
2023/02/17 11:13:02;;;;;;;0.90;0.70;;;13.30;99.90;;;;;;5095546;28;20228;-76
2023/02/17 11:15:31;;;;;;;1.97;0.77;;;13.30;99.90;;;;;;5095529;28;20193;-81
2023/02/17 11:18:01;;;;;;;2.10;0.70;;;13.40;99.90;;;;;;5095233;28;20208;-76
2023/02/17 11:20:31;;;;;;;3.17;0.67;;;13.50;99.90;;;;;;5095297;28;20216;-79
2023/02/17 11:23:09;;;;;;;2.97;0.57;;;13.30;99.90;;;;;;5095526;28;20213;-78
2023/02/17 11:25:37;;;;;;;2.00;0.60;;;13.40;99.90;;;;;;5094956;28;20208;-78
2023/02/17 11:28:06;;;;;;;1.83;0.60;;;13.30;99.90;;;;;;5095205;28;20197;-77
2023/02/17 11:30:35;;;;;;;0.93;0.60;;;13.20;99.90;;;;;;5095077;28;20201;-77
2023/02/17 11:33:12;;;;;;;0.60;0.40;;;13.20;99.90;;;;;;5095272;28;20270;-77
2023/02/17 11:35:49;;;;;;;1.37;0.73;;;13.10;99.90;;;;;;5092799;28;20211;-78
2023/02/17 11:38:20;;;;;;;1.70;0.60;;;13.20;99.90;;;;;;5087865;28;20205;-79
2023/02/17 11:40:55;;;;;;;2.73;0.90;;;13.40;99.90;;;;;;5087679;28;20236;-78
2023/02/17 11:43:23;;;;;;;1.70;0.70;;;13.40;99.90;;;;;;5088732;28;20581;-77
2023/02/17 11:46:00;;;;;;;0.63;0.50;;;13.40;99.90;;;;;;5094630;28;20207;-77
2023/02/17 11:48:50;;;;;;;1.73;0.70;;;13.40;99.90;;;;;;5094550;28;20569;-75
2023/02/17 11:51:25;;;;;;;0.60;0.60;;;13.40;99.90;;;;;;5094658;28;20220;-77
2023/02/17 11:54:01;;;;;;;0.97;0.70;;;13.30;99.90;;;;;;5094563;28;20218;-76
2023/02/17 11:56:33;;;;;;;1.40;0.70;;;13.00;99.90;;;;;;5093876;28;20566;-78
2023/02/17 11:59:17;;;;;;;0.87;0.60;;;13.00;99.90;;;;;;5093835;28;20209;-79
2023/02/17 12:02:11;;;;;;;1.30;0.80;;;13.00;99.90;;;;;;5093307;28;20936;-76
2023/02/17 12:04:48;;;;;;;0.73;0.73;;;12.90;99.90;;;;;;5088178;28;20205;-79
2023/02/17 12:07:40;;;;;;;1.53;0.70;;;13.00;99.90;;;;;;5093850;28;20204;-79
2023/02/17 12:10:21;;;;;;;0.97;0.90;;;13.00;99.90;;;;;;5091803;28;20216;-76
2023/02/17 12:13:10;;;;;;;1.23;0.50;;;12.80;99.90;;;;;;5093980;28;20691;-80
2023/02/17 12:15:50;;;;;;;1.47;0.70;;;12.70;99.90;;;;;;5094313;28;20253;-76
2023/02/17 12:18:35;;;;;;;0.90;0.50;;;12.80;99.90;;;;;;5089480;28;20256;-78
2023/02/17 12:21:10;;;;;;;3.10;0.50;;;12.70;99.90;;;;;;5094318;28;20338;-79
2023/02/17 12:23:58;;;;;;;0.50;0.50;;;12.60;99.90;;;;;;5082186;28;20211;-77
2023/02/17 12:26:35;;;;;;;0.70;0.70;;;12.60;99.90;;;;;;5094568;28;20214;-78
2023/02/17 12:29:15;;;;;;;3.20;0.80;;;12.60;99.90;;;;;;5094342;28;20295;-79
2023/02/17 12:32:06;;;;;;;1.97;0.77;;;12.50;99.90;;;;;;5093583;28;20204;-79
2023/02/17 12:34:39;;;;;;;1.07;0.80;;;12.50;99.90;;;;;;5092466;28;20212;-77
2023/02/17 12:37:14;;;;;;;1.47;0.80;;;12.40;99.90;;;;;;5093181;28;20208;-79
2023/02/17 12:39:43;;;;;;;1.23;0.83;;;12.40;99.90;;;;;;5093646;28;20548;-79
2023/02/17 12:42:17;;;;;;;1.50;0.60;;;12.40;99.90;;;;;;5093735;28;20227;-80
2023/02/17 12:44:48;;;;;;;0.73;0.63;;;12.30;99.90;;;;;;5094094;28;20211;-78
2023/02/17 12:47:22;;;;;;;1.97;0.60;;;12.30;99.90;;;;;;5093660;28;20215;-78
2023/02/17 12:49:55;;;;;;;2.67;0.83;;;12.30;99.90;;;;;;5093730;28;20200;-78
2023/02/17 12:52:26;;;;;;;1.55;0.75;;;12.30;99.90;;;;;;5093407;28;20794;-78
2023/02/17 12:54:56;;;;;;;1.23;0.83;;;12.40;99.90;;;;;;5093825;28;20559;-76
2023/02/17 12:57:32;;;;;;;1.13;0.60;;;12.40;99.90;;;;;;5093785;28;20219;-76
2023/02/17 13:00:01;;;;;;;1.00;0.80;;;12.40;99.90;;;;;;5093338;28;20644;-77
2023/02/17 13:02:29;;;;;;;3.50;0.73;;;12.50;99.90;;;;;;5093383;28;20304;-77
2023/02/17 13:05:00;;;;;;;0.63;0.60;;;12.60;99.90;;;;;;5093360;28;20580;-79
2023/02/17 13:07:42;;;;;;;2.30;1.00;;;12.70;99.90;;;;;;5093901;28;20211;-81